sensor_id;sensor_type;location;lat;lon;timestamp;temperature;humidity
16172;DHT22;8192;53.596;10.166;2023-04-15T00:00:22;6.70;99.90
16172;DHT22;8192;53.596;10.166;2023-04-15T00:02:50;6.70;99.90
16172;DHT22;8192;53.596;10.166;2023-04-15T00:05:17;6.60;99.90
16172;DHT22;8192;53.596;10.166;2023-04-15T00:07:44;6.60;99.90
16172;DHT22;8192;53.596;10.166;2023-04-15T00:10:13;6.60;99.90
16172;DHT22;8192;53.596;10.166;2023-04-15T00:12:40;6.70;99.90
16172;DHT22;8192;53.596;10.166;2023-04-15T00:15:08;6.60;99.90
16172;DHT22;8192;53.596;10.166;2023-04-15T00:17:37;6.60;99.90
16172;DHT22;8192;53.596;10.166;2023-04-15T00:20:05;6.60;99.90
16172;DHT22;8192;53.596;10.166;2023-04-15T00:22:32;6.60;99.90
16172;DHT22;8192;53.596;10.166;2023-04-15T00:24:59;6.60;99.90
16172;DHT22;8192;53.596;10.166;2023-04-15T00:27:28;6.60;99.90
16172;DHT22;8192;53.596;10.166;2023-04-15T00:29:55;6.50;99.90
16172;DHT22;8192;53.596;10.166;2023-04-15T00:32:22;6.50;99.90
16172;DHT22;8192;53.596;10.166;2023-04-15T00:34:49;6.60;99.90
16172;DHT22;8192;53.596;10.166;2023-04-15T00:37:17;6.60;99.90
16172;DHT22;8192;53.596;10.166;2023-04-15T00:39:43;6.60;99.90
16172;DHT22;8192;53.596;10.166;2023-04-15T00:42:11;6.50;99.90
16172;DHT22;8192;53.596;10.166;2023-04-15T00:44:40;6.60;99.90
16172;DHT22;8192;53.596;10.166;2023-04-15T00:47:07;6.50;99.90
16172;DHT22;8192;53.596;10.166;2023-04-15T00:49:35;6.60;99.90
16172;DHT22;8192;53.596;10.166;2023-04-15T00:52:02;6.60;99.90
16172;DHT22;8192;53.596;10.166;2023-04-15T00:54:29;6.50;99.90
16172;DHT22;8192;53.596;10.166;2023-04-15T00:56:55;6.60;99.90
16172;DHT22;8192;53.596;10.166;2023-04-15T00:59:23;6.60;99.90
16172;DHT22;8192;53.596;10.166;2023-04-15T01:01:52;6.60;99.90
16172;DHT22;8192;53.596;10.166;2023-04-15T01:04:19;6.50;99.90
16172;DHT22;8192;53.596;10.166;2023-04-15T01:06:46;6.60;99.90
16172;DHT22;8192;53.596;10.166;2023-04-15T01:15:57;6.60;99.90
16172;DHT22;8192;53.596;10.166;2023-04-15T01:18:26;6.60;99.90
16172;DHT22;8192;53.596;10.166;2023-04-15T01:20:53;6.70;99.90
16172;DHT22;8192;53.596;10.166;2023-04-15T01:23:20;6.70;99.90
16172;DHT22;8192;53.596;10.166;2023-04-15T01:25:50;6.60;99.90
16172;DHT22;8192;53.596;10.166;2023-04-15T01:28:18;6.60;99.90
16172;DHT22;8192;53.596;10.166;2023-04-15T01:30:46;6.60;99.90
16172;DHT22;8192;53.596;10.166;2023-04-15T01:33:14;6.60;99.90
16172;DHT22;8192;53.596;10.166;2023-04-15T01:35:41;6.60;99.90
16172;DHT22;8192;53.596;10.166;2023-04-15T01:38:12;9.40;99.90
16172;DHT22;8192;53.596;10.166;2023-04-15T01:40:39;6.60;99.90
16172;DHT22;8192;53.596;10.166;2023-04-15T01:43:08;6.60;99.90
16172;DHT22;8192;53.596;10.166;2023-04-15T01:45:35;6.60;99.90
16172;DHT22;8192;53.596;10.166;2023-04-15T01:48:02;6.60;99.90
16172;DHT22;8192;53.596;10.166;2023-04-15T01:53:51;6.60;99.90
16172;DHT22;8192;53.596;10.166;2023-04-15T01:56:21;6.70;99.90
16172;DHT22;8192;53.596;10.166;2023-04-15T01:58:51;6.70;99.90
16172;DHT22;8192;53.596;10.166;2023-04-15T02:01:18;6.70;99.90
16172;DHT22;8192;53.596;10.166;2023-04-15T02:03:46;7.10;99.90
16172;DHT22;8192;53.596;10.166;2023-04-15T02:06:13;6.70;99.90
16172;DHT22;8192;53.596;10.166;2023-04-15T02:08:40;8.30;99.90
16172;DHT22;8192;53.596;10.166;2023-04-15T02:16:15;6.70;99.90
16172;DHT22;8192;53.596;10.166;2023-04-15T02:18:43;6.70;99.90
16172;DHT22;8192;53.596;10.166;2023-04-15T02:21:10;6.70;99.90
16172;DHT22;8192;53.596;10.166;2023-04-15T02:23:37;6.80;99.90
16172;DHT22;8192;53.596;10.166;2023-04-15T02:26:03;6.70;99.90
16172;DHT22;8192;53.596;10.166;2023-04-15T02:28:31;6.70;99.90
16172;DHT22;8192;53.596;10.166;2023-04-15T02:30:58;6.90;99.90
16172;DHT22;8192;53.596;10.166;2023-04-15T02:33:28;7.30;99.90
16172;DHT22;8192;53.596;10.166;2023-04-15T02:35:55;8.30;99.90
16172;DHT22;8192;53.596;10.166;2023-04-15T02:38:22;6.70;99.90
16172;DHT22;8192;53.596;10.166;2023-04-15T02:40:52;6.80;99.90
16172;DHT22;8192;53.596;10.166;2023-04-15T02:43:19;6.70;99.90
16172;DHT22;8192;53.596;10.166;2023-04-15T02:45:47;6.80;99.90
16172;DHT22;8192;53.596;10.166;2023-04-15T02:48:14;6.80;99.90
16172;DHT22;8192;53.596;10.166;2023-04-15T02:50:44;6.80;99.90
16172;DHT22;8192;53.596;10.166;2023-04-15T02:53:12;6.90;99.90
16172;DHT22;8192;53.596;10.166;2023-04-15T02:55:39;8.50;99.90
16172;DHT22;8192;53.596;10.166;2023-04-15T02:58:07;6.80;99.90
16172;DHT22;8192;53.596;10.166;2023-04-15T03:00:34;6.80;99.90
16172;DHT22;8192;53.596;10.166;2023-04-15T03:03:03;6.80;99.90
16172;DHT22;8192;53.596;10.166;2023-04-15T03:05:30;6.80;99.90
16172;DHT22;8192;53.596;10.166;2023-04-15T03:07:58;6.80;99.90
16172;DHT22;8192;53.596;10.166;2023-04-15T03:10:27;6.90;99.90
16172;DHT22;8192;53.596;10.166;2023-04-15T03:12:54;6.80;99.90
16172;DHT22;8192;53.596;10.166;2023-04-15T03:15:21;6.90;99.90
16172;DHT22;8192;53.596;10.166;2023-04-15T03:17:48;6.90;99.90
16172;DHT22;8192;53.596;10.166;2023-04-15T03:20:15;6.90;99.90
16172;DHT22;8192;53.596;10.166;2023-04-15T03:22:42;6.90;99.90
16172;DHT22;8192;53.596;10.166;2023-04-15T03:25:10;6.90;99.90
16172;DHT22;8192;53.596;10.166;2023-04-15T03:27:37;8.60;99.90
16172;DHT22;8192;53.596;10.166;2023-04-15T03:30:05;6.90;99.90
16172;DHT22;8192;53.596;10.166;2023-04-15T03:32:33;6.90;99.90
16172;DHT22;8192;53.596;10.166;2023-04-15T03:35:00;6.90;99.90
16172;DHT22;8192;53.596;10.166;2023-04-15T03:37:27;6.90;99.90
16172;DHT22;8192;53.596;10.166;2023-04-15T03:39:54;7.00;99.90
16172;DHT22;8192;53.596;10.166;2023-04-15T03:42:22;6.90;99.90
16172;DHT22;8192;53.596;10.166;2023-04-15T03:44:49;6.90;99.90
16172;DHT22;8192;53.596;10.166;2023-04-15T03:47:16;6.90;99.90
16172;DHT22;8192;53.596;10.166;2023-04-15T03:49:43;8.60;99.90
16172;DHT22;8192;53.596;10.166;2023-04-15T03:52:10;6.90;99.90
16172;DHT22;8192;53.596;10.166;2023-04-15T03:54:37;6.90;99.90
16172;DHT22;8192;53.596;10.166;2023-04-15T03:57:04;6.90;99.90
16172;DHT22;8192;53.596;10.166;2023-04-15T03:59:59;6.90;99.90
16172;DHT22;8192;53.596;10.166;2023-04-15T04:02:26;6.90;99.90
16172;DHT22;8192;53.596;10.166;2023-04-15T04:04:53;7.00;99.90
16172;DHT22;8192;53.596;10.166;2023-04-15T04:07:22;7.00;99.90
16172;DHT22;8192;53.596;10.166;2023-04-15T04:09:49;6.90;99.90
16172;DHT22;8192;53.596;10.166;2023-04-15T04:12:16;7.00;99.90
16172;DHT22;8192;53.596;10.166;2023-04-15T04:14:43;7.00;99.90
16172;DHT22;8192;53.596;10.166;2023-04-15T04:17:11;7.00;99.90
16172;DHT22;8192;53.596;10.166;2023-04-15T04:19:38;7.30;99.90
16172;DHT22;8192;53.596;10.166;2023-04-15T04:22:05;7.00;99.90
16172;DHT22;8192;53.596;10.166;2023-04-15T04:24:32;7.00;99.90
16172;DHT22;8192;53.596;10.166;2023-04-15T04:26:59;7.00;99.90
16172;DHT22;8192;53.596;10.166;2023-04-15T04:29:27;7.00;99.90
16172;DHT22;8192;53.596;10.166;2023-04-15T04:31:54;7.10;99.90
16172;DHT22;8192;53.596;10.166;2023-04-15T04:37:48;7.00;99.90
16172;DHT22;8192;53.596;10.166;2023-04-15T04:40:15;7.00;99.90
16172;DHT22;8192;53.596;10.166;2023-04-15T04:42:42;7.00;99.90
16172;DHT22;8192;53.596;10.166;2023-04-15T04:45:10;7.00;99.90
16172;DHT22;8192;53.596;10.166;2023-04-15T04:47:37;7.10;99.90
16172;DHT22;8192;53.596;10.166;2023-04-15T04:50:04;7.10;99.90
16172;DHT22;8192;53.596;10.166;2023-04-15T04:52:32;7.10;99.90
16172;DHT22;8192;53.596;10.166;2023-04-15T04:55:01;7.10;99.90
16172;DHT22;8192;53.596;10.166;2023-04-15T04:57:28;7.10;99.90
16172;DHT22;8192;53.596;10.166;2023-04-15T04:59:55;7.10;99.90
16172;DHT22;8192;53.596;10.166;2023-04-15T05:02:29;7.10;99.90
16172;DHT22;8192;53.596;10.166;2023-04-15T05:04:56;7.10;99.90
16172;DHT22;8192;53.596;10.166;2023-04-15T05:07:23;7.20;99.90
16172;DHT22;8192;53.596;10.166;2023-04-15T05:09:50;7.20;99.90
16172;DHT22;8192;53.596;10.166;2023-04-15T05:12:19;7.20;99.90
16172;DHT22;8192;53.596;10.166;2023-04-15T05:14:46;7.30;99.90
16172;DHT22;8192;53.596;10.166;2023-04-15T05:17:30;8.10;99.90
16172;DHT22;8192;53.596;10.166;2023-04-15T05:19:57;7.20;99.90
16172;DHT22;8192;53.596;10.166;2023-04-15T05:22:25;7.20;99.90
16172;DHT22;8192;53.596;10.166;2023-04-15T05:24:52;7.60;99.90
16172;DHT22;8192;53.596;10.166;2023-04-15T05:27:25;7.20;99.90
16172;DHT22;8192;53.596;10.166;2023-04-15T05:32:21;7.20;99.90
16172;DHT22;8192;53.596;10.166;2023-04-15T05:34:48;7.20;99.90
16172;DHT22;8192;53.596;10.166;2023-04-15T05:37:15;7.30;99.90
16172;DHT22;8192;53.596;10.166;2023-04-15T05:39:45;7.30;99.90
16172;DHT22;8192;53.596;10.166;2023-04-15T05:42:13;7.30;99.90
16172;DHT22;8192;53.596;10.166;2023-04-15T05:48:15;7.30;99.90
16172;DHT22;8192;53.596;10.166;2023-04-15T05:50:43;7.30;99.90
16172;DHT22;8192;53.596;10.166;2023-04-15T05:53:12;7.40;99.90
16172;DHT22;8192;53.596;10.166;2023-04-15T05:59:01;7.40;99.90
16172;DHT22;8192;53.596;10.166;2023-04-15T06:01:28;7.40;99.90
16172;DHT22;8192;53.596;10.166;2023-04-15T06:03:57;7.70;99.90
16172;DHT22;8192;53.596;10.166;2023-04-15T06:09:47;7.40;99.90
16172;DHT22;8192;53.596;10.166;2023-04-15T06:12:15;7.40;99.90
16172;DHT22;8192;53.596;10.166;2023-04-15T06:14:42;8.50;99.90
16172;DHT22;8192;53.596;10.166;2023-04-15T06:17:09;7.40;99.90
16172;DHT22;8192;53.596;10.166;2023-04-15T06:19:40;7.40;99.90
16172;DHT22;8192;53.596;10.166;2023-04-15T06:22:08;7.40;99.90
16172;DHT22;8192;53.596;10.166;2023-04-15T06:24:35;8.30;99.90
16172;DHT22;8192;53.596;10.166;2023-04-15T06:27:03;7.50;99.90
16172;DHT22;8192;53.596;10.166;2023-04-15T06:29:30;7.50;99.90
16172;DHT22;8192;53.596;10.166;2023-04-15T06:32:06;7.50;99.90
16172;DHT22;8192;53.596;10.166;2023-04-15T06:41:10;7.50;99.90
16172;DHT22;8192;53.596;10.166;2023-04-15T06:43:38;7.60;99.90
16172;DHT22;8192;53.596;10.166;2023-04-15T06:46:12;7.60;99.90
16172;DHT22;8192;53.596;10.166;2023-04-15T06:48:55;7.60;99.90
16172;DHT22;8192;53.596;10.166;2023-04-15T06:51:23;7.60;99.90
16172;DHT22;8192;53.596;10.166;2023-04-15T06:53:50;7.60;99.90
16172;DHT22;8192;53.596;10.166;2023-04-15T06:56:23;7.60;99.90
16172;DHT22;8192;53.596;10.166;2023-04-15T06:58:52;7.60;99.90
16172;DHT22;8192;53.596;10.166;2023-04-15T07:01:21;7.60;99.90
16172;DHT22;8192;53.596;10.166;2023-04-15T07:06:17;7.60;99.90
16172;DHT22;8192;53.596;10.166;2023-04-15T07:12:08;7.70;99.90
16172;DHT22;8192;53.596;10.166;2023-04-15T07:17:58;7.60;99.90
16172;DHT22;8192;53.596;10.166;2023-04-15T07:20:39;7.60;99.90
16172;DHT22;8192;53.596;10.166;2023-04-15T07:23:06;7.70;99.90
16172;DHT22;8192;53.596;10.166;2023-04-15T07:25:54;7.60;99.90
16172;DHT22;8192;53.596;10.166;2023-04-15T07:28:42;7.60;99.90
16172;DHT22;8192;53.596;10.166;2023-04-15T07:31:10;7.70;99.90
16172;DHT22;8192;53.596;10.166;2023-04-15T07:33:38;7.70;99.90
16172;DHT22;8192;53.596;10.166;2023-04-15T07:36:05;7.80;99.90
16172;DHT22;8192;53.596;10.166;2023-04-15T07:41:42;7.80;99.90
16172;DHT22;8192;53.596;10.166;2023-04-15T07:47:40;7.90;99.90
16172;DHT22;8192;53.596;10.166;2023-04-15T07:50:09;8.70;99.90
16172;DHT22;8192;53.596;10.166;2023-04-15T07:52:37;8.00;99.90
16172;DHT22;8192;53.596;10.166;2023-04-15T07:55:05;8.20;99.90
16172;DHT22;8192;53.596;10.166;2023-04-15T08:07:03;8.20;99.90
16172;DHT22;8192;53.596;10.166;2023-04-15T08:23:51;8.40;99.90
16172;DHT22;8192;53.596;10.166;2023-04-15T08:26:20;8.50;99.90
16172;DHT22;8192;53.596;10.166;2023-04-15T08:29:12;8.60;99.90
16172;DHT22;8192;53.596;10.166;2023-04-15T08:35:02;8.80;99.90
16172;DHT22;8192;53.596;10.166;2023-04-15T08:40:57;8.90;99.90
16172;DHT22;8192;53.596;10.166;2023-04-15T08:43:27;8.80;99.90
16172;DHT22;8192;53.596;10.166;2023-04-15T08:45:58;8.90;99.90
16172;DHT22;8192;53.596;10.166;2023-04-15T08:48:33;8.90;99.90
16172;DHT22;8192;53.596;10.166;2023-04-15T08:51:03;9.20;99.90
16172;DHT22;8192;53.596;10.166;2023-04-15T08:53:33;9.20;99.90
16172;DHT22;8192;53.596;10.166;2023-04-15T08:59:29;9.60;99.90
16172;DHT22;8192;53.596;10.166;2023-04-15T09:04:27;9.60;99.90
16172;DHT22;8192;53.596;10.166;2023-04-15T09:09:29;9.60;99.90
16172;DHT22;8192;53.596;10.166;2023-04-15T09:15:21;10.60;99.90
16172;DHT22;8192;53.596;10.166;2023-04-15T09:20:17;11.00;99.90
16172;DHT22;8192;53.596;10.166;2023-04-15T09:22:58;11.20;99.90
16172;DHT22;8192;53.596;10.166;2023-04-15T09:25:27;11.20;99.90
16172;DHT22;8192;53.596;10.166;2023-04-15T09:27:56;11.50;99.90
16172;DHT22;8192;53.596;10.166;2023-04-15T09:30:25;11.60;99.90
16172;DHT22;8192;53.596;10.166;2023-04-15T09:32:54;11.60;99.90
16172;DHT22;8192;53.596;10.166;2023-04-15T09:35:23;12.00;99.90
16172;DHT22;8192;53.596;10.166;2023-04-15T09:37:50;12.10;99.90
16172;DHT22;8192;53.596;10.166;2023-04-15T09:40:30;12.20;99.90
16172;DHT22;8192;53.596;10.166;2023-04-15T09:45:28;12.40;99.90
16172;DHT22;8192;53.596;10.166;2023-04-15T09:47:56;11.60;99.90
16172;DHT22;8192;53.596;10.166;2023-04-15T09:50:26;12.20;99.90
16172;DHT22;8192;53.596;10.166;2023-04-15T09:52:55;12.40;99.90
16172;DHT22;8192;53.596;10.166;2023-04-15T09:55:22;12.70;99.90
16172;DHT22;8192;53.596;10.166;2023-04-15T09:57:49;12.80;99.90
16172;DHT22;8192;53.596;10.166;2023-04-15T10:02:48;12.50;99.90
16172;DHT22;8192;53.596;10.166;2023-04-15T10:05:16;12.10;99.90
16172;DHT22;8192;53.596;10.166;2023-04-15T10:07:44;12.50;99.90
16172;DHT22;8192;53.596;10.166;2023-04-15T10:10:11;12.50;99.90
16172;DHT22;8192;53.596;10.166;2023-04-15T10:12:40;12.50;99.90
16172;DHT22;8192;53.596;10.166;2023-04-15T10:15:14;12.60;99.90
16172;DHT22;8192;53.596;10.166;2023-04-15T10:17:43;12.90;99.90
16172;DHT22;8192;53.596;10.166;2023-04-15T10:20:12;12.90;99.90
16172;DHT22;8192;53.596;10.166;2023-04-15T10:22:41;12.80;99.90
16172;DHT22;8192;53.596;10.166;2023-04-15T10:25:10;13.20;99.90
16172;DHT22;8192;53.596;10.166;2023-04-15T10:27:39;13.30;99.90
16172;DHT22;8192;53.596;10.166;2023-04-15T10:30:07;13.30;99.90
16172;DHT22;8192;53.596;10.166;2023-04-15T10:32:35;13.60;99.90
16172;DHT22;8192;53.596;10.166;2023-04-15T10:35:02;13.50;99.90
16172;DHT22;8192;53.596;10.166;2023-04-15T10:37:35;13.40;99.90
16172;DHT22;8192;53.596;10.166;2023-04-15T10:40:25;13.40;99.90
16172;DHT22;8192;53.596;10.166;2023-04-15T10:42:53;13.20;99.90
16172;DHT22;8192;53.596;10.166;2023-04-15T10:45:21;13.30;99.90
16172;DHT22;8192;53.596;10.166;2023-04-15T10:47:51;13.40;99.90
16172;DHT22;8192;53.596;10.166;2023-04-15T10:50:21;13.40;99.90
16172;DHT22;8192;53.596;10.166;2023-04-15T10:52:51;13.40;99.90
16172;DHT22;8192;53.596;10.166;2023-04-15T10:55:20;13.50;99.90
16172;DHT22;8192;53.596;10.166;2023-04-15T10:57:51;13.60;99.90
16172;DHT22;8192;53.596;10.166;2023-04-15T11:00:20;13.70;99.90
16172;DHT22;8192;53.596;10.166;2023-04-15T11:02:52;13.80;99.90
16172;DHT22;8192;53.596;10.166;2023-04-15T11:05:21;13.80;99.90
16172;DHT22;8192;53.596;10.166;2023-04-15T11:08:02;13.60;99.90
16172;DHT22;8192;53.596;10.166;2023-04-15T11:10:50;13.70;99.90
16172;DHT22;8192;53.596;10.166;2023-04-15T11:13:31;13.70;99.90
16172;DHT22;8192;53.596;10.166;2023-04-15T11:15:59;13.40;99.90
16172;DHT22;8192;53.596;10.166;2023-04-15T11:18:31;13.50;99.90
16172;DHT22;8192;53.596;10.166;2023-04-15T11:21:04;13.70;99.90
16172;DHT22;8192;53.596;10.166;2023-04-15T11:23:35;13.70;99.90
16172;DHT22;8192;53.596;10.166;2023-04-15T11:26:04;13.40;99.90
16172;DHT22;8192;53.596;10.166;2023-04-15T11:28:34;13.40;99.90
16172;DHT22;8192;53.596;10.166;2023-04-15T11:31:08;13.40;99.90
16172;DHT22;8192;53.596;10.166;2023-04-15T11:33:36;13.70;99.90
16172;DHT22;8192;53.596;10.166;2023-04-15T11:36:04;13.80;99.90
16172;DHT22;8192;53.596;10.166;2023-04-15T11:38:34;14.20;99.90
16172;DHT22;8192;53.596;10.166;2023-04-15T11:41:02;14.20;99.90
16172;DHT22;8192;53.596;10.166;2023-04-15T11:43:31;14.50;99.90
16172;DHT22;8192;53.596;10.166;2023-04-15T11:46:01;15.60;99.90
16172;DHT22;8192;53.596;10.166;2023-04-15T11:48:30;14.60;99.90
16172;DHT22;8192;53.596;10.166;2023-04-15T11:50:59;14.60;99.90
16172;DHT22;8192;53.596;10.166;2023-04-15T11:53:38;14.40;99.90
16172;DHT22;8192;53.596;10.166;2023-04-15T11:56:07;14.40;99.90
16172;DHT22;8192;53.596;10.166;2023-04-15T11:58:36;14.30;99.90
16172;DHT22;8192;53.596;10.166;2023-04-15T12:04:25;13.90;99.90
16172;DHT22;8192;53.596;10.166;2023-04-15T12:06:52;13.80;99.90
16172;DHT22;8192;53.596;10.166;2023-04-15T12:12:48;13.90;99.90
16172;DHT22;8192;53.596;10.166;2023-04-15T12:15:15;13.70;99.90
16172;DHT22;8192;53.596;10.166;2023-04-15T12:17:42;13.50;99.90
16172;DHT22;8192;53.596;10.166;2023-04-15T12:20:10;13.30;99.90
16172;DHT22;8192;53.596;10.166;2023-04-15T12:26:04;13.40;99.90
16172;DHT22;8192;53.596;10.166;2023-04-15T12:31:57;13.50;99.90
16172;DHT22;8192;53.596;10.166;2023-04-15T12:34:28;13.60;99.90
16172;DHT22;8192;53.596;10.166;2023-04-15T12:36:56;13.60;99.90
16172;DHT22;8192;53.596;10.166;2023-04-15T12:42:46;13.40;99.90
16172;DHT22;8192;53.596;10.166;2023-04-15T12:48:36;13.50;99.90
16172;DHT22;8192;53.596;10.166;2023-04-15T12:51:03;13.50;99.90
16172;DHT22;8192;53.596;10.166;2023-04-15T12:53:30;13.70;99.90
16172;DHT22;8192;53.596;10.166;2023-04-15T12:55:59;13.70;99.90
16172;DHT22;8192;53.596;10.166;2023-04-15T12:58:25;13.60;99.90
16172;DHT22;8192;53.596;10.166;2023-04-15T13:00:54;13.70;99.90
16172;DHT22;8192;53.596;10.166;2023-04-15T13:03:21;13.70;99.90
16172;DHT22;8192;53.596;10.166;2023-04-15T13:05:50;14.00;99.90
16172;DHT22;8192;53.596;10.166;2023-04-15T13:08:17;14.10;99.90
16172;DHT22;8192;53.596;10.166;2023-04-15T13:10:45;14.10;99.90
16172;DHT22;8192;53.596;10.166;2023-04-15T13:13:12;14.10;99.90
16172;DHT22;8192;53.596;10.166;2023-04-15T13:15:38;14.30;99.90
16172;DHT22;8192;53.596;10.166;2023-04-15T13:18:06;14.20;99.90
16172;DHT22;8192;53.596;10.166;2023-04-15T13:20:34;14.30;99.90
16172;DHT22;8192;53.596;10.166;2023-04-15T13:23:02;14.00;99.90
16172;DHT22;8192;53.596;10.166;2023-04-15T13:25:29;14.00;99.90
16172;DHT22;8192;53.596;10.166;2023-04-15T13:27:57;14.00;99.90
16172;DHT22;8192;53.596;10.166;2023-04-15T13:30:23;14.00;99.90
16172;DHT22;8192;53.596;10.166;2023-04-15T13:32:50;14.20;99.90
16172;DHT22;8192;53.596;10.166;2023-04-15T13:35:19;14.20;99.90
16172;DHT22;8192;53.596;10.166;2023-04-15T13:37:46;14.00;99.90
16172;DHT22;8192;53.596;10.166;2023-04-15T13:40:14;14.20;99.90
16172;DHT22;8192;53.596;10.166;2023-04-15T13:42:41;14.30;99.90
16172;DHT22;8192;53.596;10.166;2023-04-15T13:45:09;14.00;99.90
16172;DHT22;8192;53.596;10.166;2023-04-15T13:47:36;14.00;99.90
16172;DHT22;8192;53.596;10.166;2023-04-15T13:50:03;13.90;99.90
16172;DHT22;8192;53.596;10.166;2023-04-15T13:52:33;14.00;99.90
16172;DHT22;8192;53.596;10.166;2023-04-15T13:55:02;14.00;99.90
16172;DHT22;8192;53.596;10.166;2023-04-15T13:57:33;14.10;99.90
16172;DHT22;8192;53.596;10.166;2023-04-15T14:00:01;14.10;99.90
16172;DHT22;8192;53.596;10.166;2023-04-15T14:02:29;14.30;99.90
16172;DHT22;8192;53.596;10.166;2023-04-15T14:04:58;14.40;99.90
16172;DHT22;8192;53.596;10.166;2023-04-15T14:07:28;14.50;99.90
16172;DHT22;8192;53.596;10.166;2023-04-15T14:09:59;14.80;99.90
16172;DHT22;8192;53.596;10.166;2023-04-15T14:12:29;14.80;99.90
16172;DHT22;8192;53.596;10.166;2023-04-15T14:14:57;14.70;99.90
16172;DHT22;8192;53.596;10.166;2023-04-15T14:17:25;14.80;99.90
16172;DHT22;8192;53.596;10.166;2023-04-15T14:19:52;14.80;99.90
16172;DHT22;8192;53.596;10.166;2023-04-15T14:22:20;15.00;99.90
16172;DHT22;8192;53.596;10.166;2023-04-15T14:24:47;15.30;99.90
16172;DHT22;8192;53.596;10.166;2023-04-15T14:27:17;15.30;99.90
16172;DHT22;8192;53.596;10.166;2023-04-15T14:29:45;15.40;99.90
16172;DHT22;8192;53.596;10.166;2023-04-15T14:32:14;15.40;99.90
16172;DHT22;8192;53.596;10.166;2023-04-15T14:34:43;15.30;99.90
16172;DHT22;8192;53.596;10.166;2023-04-15T14:37:10;15.30;99.90
16172;DHT22;8192;53.596;10.166;2023-04-15T14:39:38;15.10;99.90
16172;DHT22;8192;53.596;10.166;2023-04-15T14:42:05;14.80;99.90
16172;DHT22;8192;53.596;10.166;2023-04-15T14:44:34;14.60;99.90
16172;DHT22;8192;53.596;10.166;2023-04-15T14:47:01;14.40;99.90
16172;DHT22;8192;53.596;10.166;2023-04-15T14:49:30;14.10;99.90
16172;DHT22;8192;53.596;10.166;2023-04-15T14:51:57;13.90;99.90
16172;DHT22;8192;53.596;10.166;2023-04-15T14:54:24;13.90;99.90
16172;DHT22;8192;53.596;10.166;2023-04-15T14:56:51;13.90;99.90
16172;DHT22;8192;53.596;10.166;2023-04-15T14:59:19;13.70;99.90
16172;DHT22;8192;53.596;10.166;2023-04-15T15:01:46;13.60;99.90
16172;DHT22;8192;53.596;10.166;2023-04-15T15:04:13;13.80;99.90
16172;DHT22;8192;53.596;10.166;2023-04-15T15:06:44;13.90;99.90
16172;DHT22;8192;53.596;10.166;2023-04-15T15:09:12;13.50;99.90
16172;DHT22;8192;53.596;10.166;2023-04-15T15:11:40;13.40;99.90
16172;DHT22;8192;53.596;10.166;2023-04-15T15:14:11;13.30;99.90
16172;DHT22;8192;53.596;10.166;2023-04-15T15:16:40;13.30;99.90
16172;DHT22;8192;53.596;10.166;2023-04-15T15:19:07;11.70;99.90
16172;DHT22;8192;53.596;10.166;2023-04-15T15:21:35;13.70;99.90
16172;DHT22;8192;53.596;10.166;2023-04-15T15:24:04;14.10;99.90
16172;DHT22;8192;53.596;10.166;2023-04-15T15:26:31;13.90;99.90
16172;DHT22;8192;53.596;10.166;2023-04-15T15:28:58;13.70;99.90
16172;DHT22;8192;53.596;10.166;2023-04-15T15:31:26;13.40;99.90
16172;DHT22;8192;53.596;10.166;2023-04-15T15:33:54;13.40;99.90
16172;DHT22;8192;53.596;10.166;2023-04-15T15:36:22;13.50;99.90
16172;DHT22;8192;53.596;10.166;2023-04-15T15:39:03;13.40;99.90
16172;DHT22;8192;53.596;10.166;2023-04-15T15:41:30;13.30;99.90
16172;DHT22;8192;53.596;10.166;2023-04-15T15:43:58;13.30;99.90
16172;DHT22;8192;53.596;10.166;2023-04-15T15:46:27;13.40;99.90
16172;DHT22;8192;53.596;10.166;2023-04-15T15:53:52;13.30;99.90
16172;DHT22;8192;53.596;10.166;2023-04-15T15:56:45;13.10;99.90
16172;DHT22;8192;53.596;10.166;2023-04-15T15:59:12;13.10;99.90
16172;DHT22;8192;53.596;10.166;2023-04-15T16:01:39;13.10;99.90
16172;DHT22;8192;53.596;10.166;2023-04-15T16:04:06;13.10;99.90
16172;DHT22;8192;53.596;10.166;2023-04-15T16:11:36;12.70;99.90
16172;DHT22;8192;53.596;10.166;2023-04-15T16:14:05;12.60;99.90
16172;DHT22;8192;53.596;10.166;2023-04-15T16:16:32;12.50;99.90
16172;DHT22;8192;53.596;10.166;2023-04-15T16:21:27;12.20;99.90
16172;DHT22;8192;53.596;10.166;2023-04-15T16:24:04;12.00;99.90
16172;DHT22;8192;53.596;10.166;2023-04-15T16:26:31;12.00;99.90
16172;DHT22;8192;53.596;10.166;2023-04-15T16:32:34;11.80;99.90
16172;DHT22;8192;53.596;10.166;2023-04-15T16:35:17;11.80;99.90
16172;DHT22;8192;53.596;10.166;2023-04-15T16:37:45;11.80;99.90
16172;DHT22;8192;53.596;10.166;2023-04-15T16:40:13;11.80;99.90
16172;DHT22;8192;53.596;10.166;2023-04-15T16:42:40;11.80;99.90
16172;DHT22;8192;53.596;10.166;2023-04-15T16:45:08;11.80;99.90
16172;DHT22;8192;53.596;10.166;2023-04-15T16:47:37;11.80;99.90
16172;DHT22;8192;53.596;10.166;2023-04-15T16:50:17;11.70;99.90
16172;DHT22;8192;53.596;10.166;2023-04-15T16:52:44;11.70;99.90
16172;DHT22;8192;53.596;10.166;2023-04-15T16:55:11;11.70;99.90
16172;DHT22;8192;53.596;10.166;2023-04-15T16:57:39;11.70;99.90
16172;DHT22;8192;53.596;10.166;2023-04-15T17:00:07;11.80;99.90
16172;DHT22;8192;53.596;10.166;2023-04-15T17:02:37;11.70;99.90
16172;DHT22;8192;53.596;10.166;2023-04-15T17:05:07;11.60;99.90
16172;DHT22;8192;53.596;10.166;2023-04-15T17:07:34;11.50;99.90
16172;DHT22;8192;53.596;10.166;2023-04-15T17:10:06;11.50;99.90
16172;DHT22;8192;53.596;10.166;2023-04-15T17:15:17;11.50;99.90
16172;DHT22;8192;53.596;10.166;2023-04-15T17:17:46;11.50;99.90
16172;DHT22;8192;53.596;10.166;2023-04-15T17:20:13;11.40;99.90
16172;DHT22;8192;53.596;10.166;2023-04-15T17:22:44;11.40;99.90
16172;DHT22;8192;53.596;10.166;2023-04-15T17:25:12;11.20;99.90
16172;DHT22;8192;53.596;10.166;2023-04-15T17:27:40;11.20;99.90
16172;DHT22;8192;53.596;10.166;2023-04-15T17:30:08;11.10;99.90
16172;DHT22;8192;53.596;10.166;2023-04-15T17:32:39;11.00;99.90
16172;DHT22;8192;53.596;10.166;2023-04-15T17:35:12;10.90;99.90
16172;DHT22;8192;53.596;10.166;2023-04-15T17:37:39;10.80;99.90
16172;DHT22;8192;53.596;10.166;2023-04-15T17:40:07;10.80;99.90
16172;DHT22;8192;53.596;10.166;2023-04-15T17:42:41;10.80;99.90
16172;DHT22;8192;53.596;10.166;2023-04-15T17:45:10;10.80;99.90
16172;DHT22;8192;53.596;10.166;2023-04-15T17:47:37;10.70;99.90
16172;DHT22;8192;53.596;10.166;2023-04-15T17:50:06;10.60;99.90
16172;DHT22;8192;53.596;10.166;2023-04-15T17:52:40;10.50;99.90
16172;DHT22;8192;53.596;10.166;2023-04-15T17:58:40;10.40;99.90
16172;DHT22;8192;53.596;10.166;2023-04-15T18:01:21;10.30;99.90
16172;DHT22;8192;53.596;10.166;2023-04-15T18:03:51;10.20;99.90
16172;DHT22;8192;53.596;10.166;2023-04-15T18:06:19;10.10;99.90
16172;DHT22;8192;53.596;10.166;2023-04-15T18:08:49;10.00;99.90
16172;DHT22;8192;53.596;10.166;2023-04-15T18:11:18;10.00;99.90
16172;DHT22;8192;53.596;10.166;2023-04-15T18:13:45;9.90;99.90